sensor_id;sensor_type;location;lat;lon;timestamp;temperature;humidity
582;DHT22;277;50.074;8.436;2023-04-08T00:01:38;8.10;99.90
582;DHT22;277;50.074;8.436;2023-04-08T00:04:06;8.10;99.90
582;DHT22;277;50.074;8.436;2023-04-08T00:06:35;8.10;99.90
582;DHT22;277;50.074;8.436;2023-04-08T00:09:04;8.10;99.90
582;DHT22;277;50.074;8.436;2023-04-08T00:11:33;8.10;99.90
582;DHT22;277;50.074;8.436;2023-04-08T00:14:02;8.10;99.90
582;DHT22;277;50.074;8.436;2023-04-08T00:16:30;8.10;99.90
582;DHT22;277;50.074;8.436;2023-04-08T00:18:58;8.20;99.90
582;DHT22;277;50.074;8.436;2023-04-08T00:21:26;8.20;99.90
582;DHT22;277;50.074;8.436;2023-04-08T00:23:54;8.10;99.90
582;DHT22;277;50.074;8.436;2023-04-08T00:26:22;8.20;99.90
582;DHT22;277;50.074;8.436;2023-04-08T00:28:52;8.20;99.90
582;DHT22;277;50.074;8.436;2023-04-08T00:31:19;8.20;99.90
582;DHT22;277;50.074;8.436;2023-04-08T00:33:48;8.20;99.90
582;DHT22;277;50.074;8.436;2023-04-08T00:36:15;8.30;99.90
582;DHT22;277;50.074;8.436;2023-04-08T00:38:44;8.20;99.90
582;DHT22;277;50.074;8.436;2023-04-08T00:41:12;8.20;99.90
582;DHT22;277;50.074;8.436;2023-04-08T00:43:40;8.20;99.90
582;DHT22;277;50.074;8.436;2023-04-08T00:46:09;8.20;99.90
582;DHT22;277;50.074;8.436;2023-04-08T00:48:37;8.10;99.90
582;DHT22;277;50.074;8.436;2023-04-08T00:51:06;8.10;99.90
582;DHT22;277;50.074;8.436;2023-04-08T00:53:34;8.10;99.90
582;DHT22;277;50.074;8.436;2023-04-08T00:56:02;8.10;99.90
582;DHT22;277;50.074;8.436;2023-04-08T00:58:30;8.10;99.90
582;DHT22;277;50.074;8.436;2023-04-08T01:01:06;8.10;99.90
582;DHT22;277;50.074;8.436;2023-04-08T01:03:43;8.10;99.90
582;DHT22;277;50.074;8.436;2023-04-08T01:06:21;8.10;99.90
582;DHT22;277;50.074;8.436;2023-04-08T01:08:53;8.10;99.90
582;DHT22;277;50.074;8.436;2023-04-08T01:11:21;8.10;99.90
582;DHT22;277;50.074;8.436;2023-04-08T01:13:51;8.10;99.90
582;DHT22;277;50.074;8.436;2023-04-08T01:16:23;8.00;99.90
582;DHT22;277;50.074;8.436;2023-04-08T01:18:54;8.00;99.90
582;DHT22;277;50.074;8.436;2023-04-08T01:21:23;8.00;99.90
582;DHT22;277;50.074;8.436;2023-04-08T01:23:58;8.00;99.90
582;DHT22;277;50.074;8.436;2023-04-08T01:26:29;8.10;99.90
582;DHT22;277;50.074;8.436;2023-04-08T01:28:59;8.00;99.90
582;DHT22;277;50.074;8.436;2023-04-08T01:31:28;8.00;99.90
582;DHT22;277;50.074;8.436;2023-04-08T01:33:59;8.00;99.90
582;DHT22;277;50.074;8.436;2023-04-08T01:36:29;8.00;99.90
582;DHT22;277;50.074;8.436;2023-04-08T01:38:59;8.00;99.90
582;DHT22;277;50.074;8.436;2023-04-08T01:41:29;8.00;99.90
582;DHT22;277;50.074;8.436;2023-04-08T01:43:58;8.00;99.90
582;DHT22;277;50.074;8.436;2023-04-08T01:46:27;8.00;99.90
582;DHT22;277;50.074;8.436;2023-04-08T01:48:56;8.00;99.90
582;DHT22;277;50.074;8.436;2023-04-08T01:51:25;7.90;99.90
582;DHT22;277;50.074;8.436;2023-04-08T01:53:53;7.90;99.90
582;DHT22;277;50.074;8.436;2023-04-08T01:56:21;7.90;99.90
582;DHT22;277;50.074;8.436;2023-04-08T01:58:53;7.80;99.90
582;DHT22;277;50.074;8.436;2023-04-08T02:01:24;7.80;99.90
582;DHT22;277;50.074;8.436;2023-04-08T02:03:54;7.80;99.90
582;DHT22;277;50.074;8.436;2023-04-08T02:06:25;7.80;99.90
582;DHT22;277;50.074;8.436;2023-04-08T02:08:55;7.70;99.90
582;DHT22;277;50.074;8.436;2023-04-08T02:11:22;7.70;99.90
582;DHT22;277;50.074;8.436;2023-04-08T02:13:53;7.70;99.90
582;DHT22;277;50.074;8.436;2023-04-08T02:16:22;7.60;99.90
582;DHT22;277;50.074;8.436;2023-04-08T02:18:55;7.60;99.90
582;DHT22;277;50.074;8.436;2023-04-08T02:21:29;7.60;99.90
582;DHT22;277;50.074;8.436;2023-04-08T02:23:59;7.60;99.90
582;DHT22;277;50.074;8.436;2023-04-08T02:26:32;7.60;99.90
582;DHT22;277;50.074;8.436;2023-04-08T02:29:03;7.60;99.90
582;DHT22;277;50.074;8.436;2023-04-08T02:31:33;7.50;99.90
582;DHT22;277;50.074;8.436;2023-04-08T02:34:01;7.60;99.90
582;DHT22;277;50.074;8.436;2023-04-08T02:36:32;7.50;99.90
582;DHT22;277;50.074;8.436;2023-04-08T02:39:00;7.50;99.90
582;DHT22;277;50.074;8.436;2023-04-08T02:41:27;7.40;99.90
582;DHT22;277;50.074;8.436;2023-04-08T02:43:56;7.40;99.90
582;DHT22;277;50.074;8.436;2023-04-08T02:46:25;7.30;99.90
582;DHT22;277;50.074;8.436;2023-04-08T02:48:53;7.30;99.90
582;DHT22;277;50.074;8.436;2023-04-08T02:51:20;7.30;99.90
582;DHT22;277;50.074;8.436;2023-04-08T02:53:48;7.20;99.90
582;DHT22;277;50.074;8.436;2023-04-08T02:56:16;7.20;99.90
582;DHT22;277;50.074;8.436;2023-04-08T02:58:44;7.20;99.90
582;DHT22;277;50.074;8.436;2023-04-08T03:01:12;7.10;99.90
582;DHT22;277;50.074;8.436;2023-04-08T03:03:41;7.10;99.90
582;DHT22;277;50.074;8.436;2023-04-08T03:06:09;7.10;99.90
582;DHT22;277;50.074;8.436;2023-04-08T03:08:37;7.00;99.90
582;DHT22;277;50.074;8.436;2023-04-08T03:11:05;7.00;99.90
582;DHT22;277;50.074;8.436;2023-04-08T03:13:33;6.90;99.90
582;DHT22;277;50.074;8.436;2023-04-08T03:16:01;6.80;99.90
582;DHT22;277;50.074;8.436;2023-04-08T03:18:29;6.80;99.90
582;DHT22;277;50.074;8.436;2023-04-08T03:20:58;6.80;99.90
582;DHT22;277;50.074;8.436;2023-04-08T03:23:27;6.80;99.90
582;DHT22;277;50.074;8.436;2023-04-08T03:25:54;6.80;99.90
582;DHT22;277;50.074;8.436;2023-04-08T03:28:22;6.70;99.90
582;DHT22;277;50.074;8.436;2023-04-08T03:30:50;6.70;99.90
582;DHT22;277;50.074;8.436;2023-04-08T03:33:18;6.70;99.90
582;DHT22;277;50.074;8.436;2023-04-08T03:35:46;6.70;99.90
582;DHT22;277;50.074;8.436;2023-04-08T03:38:15;6.70;99.90
582;DHT22;277;50.074;8.436;2023-04-08T03:40:43;6.80;99.90
582;DHT22;277;50.074;8.436;2023-04-08T03:43:11;6.80;99.90
582;DHT22;277;50.074;8.436;2023-04-08T03:45:39;6.80;99.90
582;DHT22;277;50.074;8.436;2023-04-08T03:48:07;6.80;99.90
582;DHT22;277;50.074;8.436;2023-04-08T03:50:34;6.80;99.90
582;DHT22;277;50.074;8.436;2023-04-08T03:53:02;6.80;99.90
582;DHT22;277;50.074;8.436;2023-04-08T03:55:31;6.70;99.90
582;DHT22;277;50.074;8.436;2023-04-08T03:57:59;6.70;99.90
582;DHT22;277;50.074;8.436;2023-04-08T04:00:27;6.60;99.90
582;DHT22;277;50.074;8.436;2023-04-08T04:02:55;6.60;99.90
582;DHT22;277;50.074;8.436;2023-04-08T04:05:23;6.60;99.90
582;DHT22;277;50.074;8.436;2023-04-08T04:07:51;6.60;99.90
582;DHT22;277;50.074;8.436;2023-04-08T04:10:19;6.50;99.90
582;DHT22;277;50.074;8.436;2023-04-08T04:12:48;6.50;99.90
582;DHT22;277;50.074;8.436;2023-04-08T04:15:16;6.40;99.90
582;DHT22;277;50.074;8.436;2023-04-08T04:17:46;6.40;99.90
582;DHT22;277;50.074;8.436;2023-04-08T04:20:15;6.30;99.90
582;DHT22;277;50.074;8.436;2023-04-08T04:22:43;6.20;99.90
582;DHT22;277;50.074;8.436;2023-04-08T04:25:12;6.20;99.90
582;DHT22;277;50.074;8.436;2023-04-08T04:27:40;6.10;99.90
582;DHT22;277;50.074;8.436;2023-04-08T04:30:09;6.10;99.90
582;DHT22;277;50.074;8.436;2023-04-08T04:32:40;6.00;99.90
582;DHT22;277;50.074;8.436;2023-04-08T04:35:09;6.00;99.90
582;DHT22;277;50.074;8.436;2023-04-08T04:37:37;5.90;99.90
582;DHT22;277;50.074;8.436;2023-04-08T04:40:05;5.90;99.90
582;DHT22;277;50.074;8.436;2023-04-08T04:42:34;5.90;99.90
582;DHT22;277;50.074;8.436;2023-04-08T04:45:02;5.80;99.90
582;DHT22;277;50.074;8.436;2023-04-08T04:47:31;5.80;99.90
582;DHT22;277;50.074;8.436;2023-04-08T04:49:59;5.70;99.90
582;DHT22;277;50.074;8.436;2023-04-08T04:52:27;5.70;99.90
582;DHT22;277;50.074;8.436;2023-04-08T04:54:56;5.60;99.90
582;DHT22;277;50.074;8.436;2023-04-08T04:57:24;5.60;99.90
582;DHT22;277;50.074;8.436;2023-04-08T04:59:52;5.60;99.90
582;DHT22;277;50.074;8.436;2023-04-08T05:02:20;5.50;99.90
582;DHT22;277;50.074;8.436;2023-04-08T05:04:49;5.60;99.90
582;DHT22;277;50.074;8.436;2023-04-08T05:07:19;5.50;99.90
582;DHT22;277;50.074;8.436;2023-04-08T05:09:47;5.50;99.90
582;DHT22;277;50.074;8.436;2023-04-08T05:12:15;5.40;99.90
582;DHT22;277;50.074;8.436;2023-04-08T05:14:43;5.50;99.90
582;DHT22;277;50.074;8.436;2023-04-08T05:17:11;5.40;99.90
582;DHT22;277;50.074;8.436;2023-04-08T05:19:39;5.30;99.90
582;DHT22;277;50.074;8.436;2023-04-08T05:22:08;5.40;99.90
582;DHT22;277;50.074;8.436;2023-04-08T05:24:36;5.40;99.90
582;DHT22;277;50.074;8.436;2023-04-08T05:27:04;5.40;99.90
582;DHT22;277;50.074;8.436;2023-04-08T05:29:32;5.30;99.90
582;DHT22;277;50.074;8.436;2023-04-08T05:32:00;5.30;99.90
582;DHT22;277;50.074;8.436;2023-04-08T05:34:30;5.40;99.90
582;DHT22;277;50.074;8.436;2023-04-08T05:36:58;5.30;99.90
582;DHT22;277;50.074;8.436;2023-04-08T05:39:27;5.30;99.90
582;DHT22;277;50.074;8.436;2023-04-08T05:41:55;5.30;99.90
582;DHT22;277;50.074;8.436;2023-04-08T05:44:23;5.40;99.90
582;DHT22;277;50.074;8.436;2023-04-08T05:46:53;5.50;99.90
582;DHT22;277;50.074;8.436;2023-04-08T05:49:23;5.50;99.90
582;DHT22;277;50.074;8.436;2023-04-08T05:51:53;5.60;99.90
582;DHT22;277;50.074;8.436;2023-04-08T05:54:21;5.60;99.90
582;DHT22;277;50.074;8.436;2023-04-08T05:56:50;5.70;99.90
582;DHT22;277;50.074;8.436;2023-04-08T05:59:18;5.80;99.90
582;DHT22;277;50.074;8.436;2023-04-08T06:01:46;5.80;99.90
582;DHT22;277;50.074;8.436;2023-04-08T06:04:14;5.90;99.90
582;DHT22;277;50.074;8.436;2023-04-08T06:06:43;5.90;99.90
582;DHT22;277;50.074;8.436;2023-04-08T06:09:11;5.90;99.90
582;DHT22;277;50.074;8.436;2023-04-08T06:11:39;5.90;99.90
582;DHT22;277;50.074;8.436;2023-04-08T06:14:08;6.00;99.90
582;DHT22;277;50.074;8.436;2023-04-08T06:16:36;6.00;99.90
582;DHT22;277;50.074;8.436;2023-04-08T06:19:04;6.00;99.90
582;DHT22;277;50.074;8.436;2023-04-08T06:21:32;6.10;99.90
582;DHT22;277;50.074;8.436;2023-04-08T06:23:59;6.10;99.90
582;DHT22;277;50.074;8.436;2023-04-08T06:26:27;6.20;99.90
582;DHT22;277;50.074;8.436;2023-04-08T06:28:55;6.20;99.90
582;DHT22;277;50.074;8.436;2023-04-08T06:31:24;6.20;99.90
582;DHT22;277;50.074;8.436;2023-04-08T06:33:52;6.30;99.90
582;DHT22;277;50.074;8.436;2023-04-08T06:36:21;6.30;99.90
582;DHT22;277;50.074;8.436;2023-04-08T06:38:49;6.40;99.90
582;DHT22;277;50.074;8.436;2023-04-08T06:41:17;6.40;99.90
582;DHT22;277;50.074;8.436;2023-04-08T06:43:45;6.40;99.90
582;DHT22;277;50.074;8.436;2023-04-08T06:46:13;6.40;99.90
582;DHT22;277;50.074;8.436;2023-04-08T06:48:42;6.50;99.90
582;DHT22;277;50.074;8.436;2023-04-08T06:51:10;6.60;99.90
582;DHT22;277;50.074;8.436;2023-04-08T06:53:38;6.60;99.90
582;DHT22;277;50.074;8.436;2023-04-08T06:56:06;6.80;99.90
582;DHT22;277;50.074;8.436;2023-04-08T06:58:34;6.80;99.90
582;DHT22;277;50.074;8.436;2023-04-08T07:01:02;6.90;99.90
582;DHT22;277;50.074;8.436;2023-04-08T07:03:30;7.00;99.90
582;DHT22;277;50.074;8.436;2023-04-08T07:05:59;7.00;99.90
582;DHT22;277;50.074;8.436;2023-04-08T07:08:27;7.20;99.90
582;DHT22;277;50.074;8.436;2023-04-08T07:10:55;7.20;99.90
582;DHT22;277;50.074;8.436;2023-04-08T07:13:23;7.20;99.90
582;DHT22;277;50.074;8.436;2023-04-08T07:15:51;7.30;99.90
582;DHT22;277;50.074;8.436;2023-04-08T07:18:19;7.30;99.90
582;DHT22;277;50.074;8.436;2023-04-08T07:20:49;7.50;99.90
582;DHT22;277;50.074;8.436;2023-04-08T07:23:21;7.50;99.90
582;DHT22;277;50.074;8.436;2023-04-08T07:25:49;7.70;99.90
582;DHT22;277;50.074;8.436;2023-04-08T07:28:17;7.90;99.90
582;DHT22;277;50.074;8.436;2023-04-08T07:30:45;8.00;99.90
582;DHT22;277;50.074;8.436;2023-04-08T07:33:12;8.10;99.90
582;DHT22;277;50.074;8.436;2023-04-08T07:35:41;8.20;99.90
582;DHT22;277;50.074;8.436;2023-04-08T07:38:09;8.30;99.90
582;DHT22;277;50.074;8.436;2023-04-08T07:40:40;8.40;99.90
582;DHT22;277;50.074;8.436;2023-04-08T07:43:08;8.50;99.90
582;DHT22;277;50.074;8.436;2023-04-08T07:45:36;8.60;99.90
582;DHT22;277;50.074;8.436;2023-04-08T07:48:04;8.70;99.90
582;DHT22;277;50.074;8.436;2023-04-08T07:50:32;8.80;99.90
582;DHT22;277;50.074;8.436;2023-04-08T07:53:19;8.70;99.90
582;DHT22;277;50.074;8.436;2023-04-08T07:55:50;8.80;99.90
582;DHT22;277;50.074;8.436;2023-04-08T07:58:18;9.00;99.90
582;DHT22;277;50.074;8.436;2023-04-08T08:00:46;9.10;99.90
582;DHT22;277;50.074;8.436;2023-04-08T08:03:14;9.00;99.90
582;DHT22;277;50.074;8.436;2023-04-08T08:05:42;9.00;99.90
582;DHT22;277;50.074;8.436;2023-04-08T08:08:10;8.90;99.90
582;DHT22;277;50.074;8.436;2023-04-08T08:10:38;8.90;99.90
582;DHT22;277;50.074;8.436;2023-04-08T08:13:08;8.90;99.90
582;DHT22;277;50.074;8.436;2023-04-08T08:15:38;8.80;99.90
582;DHT22;277;50.074;8.436;2023-04-08T08:18:05;8.90;99.90
582;DHT22;277;50.074;8.436;2023-04-08T08:20:34;8.90;99.90
582;DHT22;277;50.074;8.436;2023-04-08T08:23:02;8.90;99.90
582;DHT22;277;50.074;8.436;2023-04-08T08:25:30;8.90;99.90
582;DHT22;277;50.074;8.436;2023-04-08T08:27:58;8.80;99.90
582;DHT22;277;50.074;8.436;2023-04-08T08:30:27;8.90;99.90
582;DHT22;277;50.074;8.436;2023-04-08T08:32:55;9.00;99.90
582;DHT22;277;50.074;8.436;2023-04-08T08:35:24;9.10;99.90
582;DHT22;277;50.074;8.436;2023-04-08T08:37:52;9.00;99.90
582;DHT22;277;50.074;8.436;2023-04-08T08:40:20;8.90;99.90
582;DHT22;277;50.074;8.436;2023-04-08T08:42:49;8.90;99.90
582;DHT22;277;50.074;8.436;2023-04-08T08:45:18;8.90;99.90
582;DHT22;277;50.074;8.436;2023-04-08T08:47:47;9.00;99.90
582;DHT22;277;50.074;8.436;2023-04-08T08:50:17;8.90;99.90
582;DHT22;277;50.074;8.436;2023-04-08T08:52:48;8.90;99.90
582;DHT22;277;50.074;8.436;2023-04-08T08:55:17;8.80;99.90
582;DHT22;277;50.074;8.436;2023-04-08T08:58:05;8.80;99.90
582;DHT22;277;50.074;8.436;2023-04-08T09:00:35;8.80;99.90
582;DHT22;277;50.074;8.436;2023-04-08T09:03:18;8.90;99.90
582;DHT22;277;50.074;8.436;2023-04-08T09:05:48;8.90;99.90
582;DHT22;277;50.074;8.436;2023-04-08T09:08:23;8.80;99.90
582;DHT22;277;50.074;8.436;2023-04-08T09:10:51;8.90;99.90
582;DHT22;277;50.074;8.436;2023-04-08T09:13:21;8.90;99.90
582;DHT22;277;50.074;8.436;2023-04-08T09:16:03;8.90;99.90
582;DHT22;277;50.074;8.436;2023-04-08T09:18:33;8.80;99.90
582;DHT22;277;50.074;8.436;2023-04-08T09:21:02;8.70;99.90
582;DHT22;277;50.074;8.436;2023-04-08T09:23:46;8.80;99.90
582;DHT22;277;50.074;8.436;2023-04-08T09:26:19;8.90;99.90
582;DHT22;277;50.074;8.436;2023-04-08T09:28:59;9.00;99.90
582;DHT22;277;50.074;8.436;2023-04-08T09:31:44;9.10;99.90
582;DHT22;277;50.074;8.436;2023-04-08T09:34:15;9.20;99.90
582;DHT22;277;50.074;8.436;2023-04-08T09:36:46;9.30;99.90
582;DHT22;277;50.074;8.436;2023-04-08T09:39:15;9.40;99.90
582;DHT22;277;50.074;8.436;2023-04-08T09:41:43;9.50;99.90
582;DHT22;277;50.074;8.436;2023-04-08T09:44:14;9.70;99.90
582;DHT22;277;50.074;8.436;2023-04-08T09:46:55;9.80;99.90
582;DHT22;277;50.074;8.436;2023-04-08T09:49:32;9.90;99.90
582;DHT22;277;50.074;8.436;2023-04-08T09:52:06;10.00;99.90
582;DHT22;277;50.074;8.436;2023-04-08T09:54:41;10.10;99.90
582;DHT22;277;50.074;8.436;2023-04-08T09:57:15;10.20;99.90
582;DHT22;277;50.074;8.436;2023-04-08T09:59:47;10.30;99.90
582;DHT22;277;50.074;8.436;2023-04-08T10:02:22;10.40;99.90
582;DHT22;277;50.074;8.436;2023-04-08T10:04:55;10.50;99.90
582;DHT22;277;50.074;8.436;2023-04-08T10:07:27;10.60;99.90
582;DHT22;277;50.074;8.436;2023-04-08T10:09:56;10.90;99.90
582;DHT22;277;50.074;8.436;2023-04-08T10:12:25;11.10;99.90
582;DHT22;277;50.074;8.436;2023-04-08T10:15:21;11.20;99.90
582;DHT22;277;50.074;8.436;2023-04-08T10:17:49;11.30;99.90
582;DHT22;277;50.074;8.436;2023-04-08T10:20:41;11.50;99.90
582;DHT22;277;50.074;8.436;2023-04-08T10:23:11;11.70;99.90
582;DHT22;277;50.074;8.436;2023-04-08T10:25:40;11.80;99.90
582;DHT22;277;50.074;8.436;2023-04-08T10:28:24;11.80;99.90
582;DHT22;277;50.074;8.436;2023-04-08T10:30:53;12.00;99.90
582;DHT22;277;50.074;8.436;2023-04-08T10:33:29;12.10;99.90
582;DHT22;277;50.074;8.436;2023-04-08T10:36:07;12.20;99.90
582;DHT22;277;50.074;8.436;2023-04-08T10:38:37;12.40;99.90
582;DHT22;277;50.074;8.436;2023-04-08T10:41:04;12.50;99.90
582;DHT22;277;50.074;8.436;2023-04-08T10:43:33;12.40;99.90
582;DHT22;277;50.074;8.436;2023-04-08T10:46:01;12.30;99.90
582;DHT22;277;50.074;8.436;2023-04-08T10:48:30;12.40;99.90
582;DHT22;277;50.074;8.436;2023-04-08T10:51:01;12.40;99.90
582;DHT22;277;50.074;8.436;2023-04-08T10:53:30;12.60;99.90
582;DHT22;277;50.074;8.436;2023-04-08T10:56:06;12.60;99.90
582;DHT22;277;50.074;8.436;2023-04-08T10:58:34;12.60;99.90
582;DHT22;277;50.074;8.436;2023-04-08T11:01:04;12.60;99.90
582;DHT22;277;50.074;8.436;2023-04-08T11:03:34;12.50;99.90
582;DHT22;277;50.074;8.436;2023-04-08T11:06:04;12.40;99.90
582;DHT22;277;50.074;8.436;2023-04-08T11:08:34;12.50;99.90
582;DHT22;277;50.074;8.436;2023-04-08T11:11:03;12.50;99.90
582;DHT22;277;50.074;8.436;2023-04-08T11:13:35;12.40;99.90
582;DHT22;277;50.074;8.436;2023-04-08T11:16:03;12.60;99.90
582;DHT22;277;50.074;8.436;2023-04-08T11:18:44;12.70;99.90
582;DHT22;277;50.074;8.436;2023-04-08T11:21:15;12.60;99.90
582;DHT22;277;50.074;8.436;2023-04-08T11:23:43;12.60;99.90
582;DHT22;277;50.074;8.436;2023-04-08T11:26:12;12.60;99.90
582;DHT22;277;50.074;8.436;2023-04-08T11:28:42;12.50;99.90
582;DHT22;277;50.074;8.436;2023-04-08T11:31:11;12.40;99.90
582;DHT22;277;50.074;8.436;2023-04-08T11:33:44;12.40;99.90
582;DHT22;277;50.074;8.436;2023-04-08T11:36:17;12.50;99.90
582;DHT22;277;50.074;8.436;2023-04-08T11:38:47;12.60;99.90
582;DHT22;277;50.074;8.436;2023-04-08T11:41:15;12.70;99.90
582;DHT22;277;50.074;8.436;2023-04-08T11:43:55;12.80;99.90
582;DHT22;277;50.074;8.436;2023-04-08T11:46:23;13.10;99.90
582;DHT22;277;50.074;8.436;2023-04-08T11:49:03;13.10;99.90
582;DHT22;277;50.074;8.436;2023-04-08T11:51:33;13.20;99.90
582;DHT22;277;50.074;8.436;2023-04-08T11:54:03;13.20;99.90
582;DHT22;277;50.074;8.436;2023-04-08T11:56:43;13.30;99.90
582;DHT22;277;50.074;8.436;2023-04-08T11:59:12;13.40;99.90
582;DHT22;277;50.074;8.436;2023-04-08T12:01:40;13.50;99.90
582;DHT22;277;50.074;8.436;2023-04-08T12:04:10;13.50;99.90
582;DHT22;277;50.074;8.436;2023-04-08T12:06:39;13.40;99.90
582;DHT22;277;50.074;8.436;2023-04-08T12:09:09;13.30;99.90
582;DHT22;277;50.074;8.436;2023-04-08T12:11:37;13.20;99.90
582;DHT22;277;50.074;8.436;2023-04-08T12:14:04;13.30;99.90
582;DHT22;277;50.074;8.436;2023-04-08T12:16:32;13.30;99.90
582;DHT22;277;50.074;8.436;2023-04-08T12:19:00;13.30;99.90
582;DHT22;277;50.074;8.436;2023-04-08T12:21:28;13.30;99.90
582;DHT22;277;50.074;8.436;2023-04-08T12:23:59;13.20;99.90
582;DHT22;277;50.074;8.436;2023-04-08T12:26:27;13.10;99.90
582;DHT22;277;50.074;8.436;2023-04-08T12:28:55;13.30;99.90
582;DHT22;277;50.074;8.436;2023-04-08T12:31:23;13.40;99.90
582;DHT22;277;50.074;8.436;2023-04-08T12:33:53;13.60;99.90
582;DHT22;277;50.074;8.436;2023-04-08T12:36:21;13.80;99.90
582;DHT22;277;50.074;8.436;2023-04-08T12:38:49;13.90;99.90
582;DHT22;277;50.074;8.436;2023-04-08T12:41:18;13.90;99.90
582;DHT22;277;50.074;8.436;2023-04-08T12:43:46;14.00;99.90
582;DHT22;277;50.074;8.436;2023-04-08T12:46:14;13.80;99.90
582;DHT22;277;50.074;8.436;2023-04-08T12:48:42;13.70;99.90
582;DHT22;277;50.074;8.436;2023-04-08T12:51:10;13.80;99.90
582;DHT22;277;50.074;8.436;2023-04-08T12:53:38;13.90;99.90
582;DHT22;277;50.074;8.436;2023-04-08T12:56:06;13.80;99.90
582;DHT22;277;50.074;8.436;2023-04-08T12:58:35;13.60;99.90
582;DHT22;277;50.074;8.436;2023-04-08T13:01:03;13.50;99.90
582;DHT22;277;50.074;8.436;2023-04-08T13:03:31;13.40;99.90
582;DHT22;277;50.074;8.436;2023-04-08T13:06:01;13.50;99.90
582;DHT22;277;50.074;8.436;2023-04-08T13:08:29;14.00;99.90
582;DHT22;277;50.074;8.436;2023-04-08T13:10:57;14.30;99.90
582;DHT22;277;50.074;8.436;2023-04-08T13:13:25;14.40;99.90
582;DHT22;277;50.074;8.436;2023-04-08T13:15:54;14.40;99.90
582;DHT22;277;50.074;8.436;2023-04-08T13:18:23;14.30;99.90
582;DHT22;277;50.074;8.436;2023-04-08T13:20:51;14.20;99.90
582;DHT22;277;50.074;8.436;2023-04-08T13:23:19;13.90;99.90
582;DHT22;277;50.074;8.436;2023-04-08T13:25:47;13.80;99.90
582;DHT22;277;50.074;8.436;2023-04-08T13:28:15;13.60;99.90
582;DHT22;277;50.074;8.436;2023-04-08T13:30:43;13.50;99.90
582;DHT22;277;50.074;8.436;2023-04-08T13:33:12;13.40;99.90
582;DHT22;277;50.074;8.436;2023-04-08T13:35:40;13.30;99.90
582;DHT22;277;50.074;8.436;2023-04-08T13:38:08;13.20;99.90
582;DHT22;277;50.074;8.436;2023-04-08T13:40:35;13.20;99.90
582;DHT22;277;50.074;8.436;2023-04-08T13:43:04;13.20;99.90
582;DHT22;277;50.074;8.436;2023-04-08T13:45:31;13.20;99.90
582;DHT22;277;50.074;8.436;2023-04-08T13:47:59;13.20;99.90
582;DHT22;277;50.074;8.436;2023-04-08T13:50:29;13.00;99.90
582;DHT22;277;50.074;8.436;2023-04-08T13:52:57;13.00;99.90
582;DHT22;277;50.074;8.436;2023-04-08T13:55:24;13.00;99.90
582;DHT22;277;50.074;8.436;2023-04-08T13:57:52;13.10;99.90
582;DHT22;277;50.074;8.436;2023-04-08T14:00:20;13.00;99.90
582;DHT22;277;50.074;8.436;2023-04-08T14:02:48;13.00;99.90
582;DHT22;277;50.074;8.436;2023-04-08T14:05:17;13.00;99.90
582;DHT22;277;50.074;8.436;2023-04-08T14:07:46;12.90;99.90
582;DHT22;277;50.074;8.436;2023-04-08T14:10:14;12.70;99.90
582;DHT22;277;50.074;8.436;2023-04-08T14:12:43;12.60;99.90
582;DHT22;277;50.074;8.436;2023-04-08T14:15:12;12.50;99.90
582;DHT22;277;50.074;8.436;2023-04-08T14:17:40;12.50;99.90
582;DHT22;277;50.074;8.436;2023-04-08T14:20:08;12.40;99.90
582;DHT22;277;50.074;8.436;2023-04-08T14:22:36;12.30;99.90
582;DHT22;277;50.074;8.436;2023-04-08T14:25:06;12.20;99.90
582;DHT22;277;50.074;8.436;2023-04-08T14:27:34;12.20;99.90
582;DHT22;277;50.074;8.436;2023-04-08T14:30:13;12.10;99.90
582;DHT22;277;50.074;8.436;2023-04-08T14:32:41;12.10;99.90
582;DHT22;277;50.074;8.436;2023-04-08T14:35:09;12.20;99.90
582;DHT22;277;50.074;8.436;2023-04-08T14:37:36;12.30;99.90
582;DHT22;277;50.074;8.436;2023-04-08T14:40:07;12.30;99.90
582;DHT22;277;50.074;8.436;2023-04-08T14:42:36;12.20;99.90
582;DHT22;277;50.074;8.436;2023-04-08T14:45:04;12.10;99.90
582;DHT22;277;50.074;8.436;2023-04-08T14:47:32;12.10;99.90
582;DHT22;277;50.074;8.436;2023-04-08T14:50:00;12.00;99.90
582;DHT22;277;50.074;8.436;2023-04-08T14:52:28;12.10;99.90
582;DHT22;277;50.074;8.436;2023-04-08T14:54:56;12.00;99.90
582;DHT22;277;50.074;8.436;2023-04-08T14:57:25;12.00;99.90
582;DHT22;277;50.074;8.436;2023-04-08T14:59:53;11.90;99.90
582;DHT22;277;50.074;8.436;2023-04-08T15:02:21;11.90;99.90
582;DHT22;277;50.074;8.436;2023-04-08T15:04:49;11.90;99.90
582;DHT22;277;50.074;8.436;2023-04-08T15:07:17;11.90;99.90
582;DHT22;277;50.074;8.436;2023-04-08T15:09:45;11.90;99.90
582;DHT22;277;50.074;8.436;2023-04-08T15:12:13;11.90;99.90
582;DHT22;277;50.074;8.436;2023-04-08T15:14:42;12.10;99.90
582;DHT22;277;50.074;8.436;2023-04-08T15:17:10;12.20;99.90
582;DHT22;277;50.074;8.436;2023-04-08T15:19:38;12.20;99.90
582;DHT22;277;50.074;8.436;2023-04-08T15:22:06;12.20;99.90
582;DHT22;277;50.074;8.436;2023-04-08T15:24:34;12.20;99.90
582;DHT22;277;50.074;8.436;2023-04-08T15:27:02;12.30;99.90
582;DHT22;277;50.074;8.436;2023-04-08T15:29:30;12.50;99.90
582;DHT22;277;50.074;8.436;2023-04-08T15:31:59;12.60;99.90
582;DHT22;277;50.074;8.436;2023-04-08T15:34:28;12.60;99.90
582;DHT22;277;50.074;8.436;2023-04-08T15:36:56;12.60;99.90
582;DHT22;277;50.074;8.436;2023-04-08T15:39:24;12.50;99.90
582;DHT22;277;50.074;8.436;2023-04-08T15:41:52;12.40;99.90
582;DHT22;277;50.074;8.436;2023-04-08T15:44:20;12.40;99.90
582;DHT22;277;50.074;8.436;2023-04-08T15:46:48;12.40;99.90
582;DHT22;277;50.074;8.436;2023-04-08T15:49:18;12.40;99.90
582;DHT22;277;50.074;8.436;2023-04-08T15:51:46;12.40;99.90
582;DHT22;277;50.074;8.436;2023-04-08T15:54:16;12.40;99.90
582;DHT22;277;50.074;8.436;2023-04-08T15:56:44;12.40;99.90
582;DHT22;277;50.074;8.436;2023-04-08T15:59:12;12.30;99.90
582;DHT22;277;50.074;8.436;2023-04-08T16:01:40;12.30;99.90
582;DHT22;277;50.074;8.436;2023-04-08T16:04:08;12.30;99.90
582;DHT22;277;50.074;8.436;2023-04-08T16:06:38;12.30;99.90
582;DHT22;277;50.074;8.436;2023-04-08T16:09:06;12.30;99.90
582;DHT22;277;50.074;8.436;2023-04-08T16:11:34;12.30;99.90
582;DHT22;277;50.074;8.436;2023-04-08T16:14:17;12.40;99.90
582;DHT22;277;50.074;8.436;2023-04-08T16:16:45;12.40;99.90
582;DHT22;277;50.074;8.436;2023-04-08T16:19:13;12.40;99.90
582;DHT22;277;50.074;8.436;2023-04-08T16:21:42;12.50;99.90
582;DHT22;277;50.074;8.436;2023-04-08T16:24:10;12.40;99.90
582;DHT22;277;50.074;8.436;2023-04-08T16:26:37;12.40;99.90
582;DHT22;277;50.074;8.436;2023-04-08T16:29:06;12.40;99.90
582;DHT22;277;50.074;8.436;2023-04-08T16:31:34;12.40;99.90
582;DHT22;277;50.074;8.436;2023-04-08T16:34:02;12.40;99.90
582;DHT22;277;50.074;8.436;2023-04-08T16:36:30;12.30;99.90
582;DHT22;277;50.074;8.436;2023-04-08T16:39:00;12.30;99.90
582;DHT22;277;50.074;8.436;2023-04-08T16:41:27;12.20;99.90
582;DHT22;277;50.074;8.436;2023-04-08T16:43:55;12.20;99.90
582;DHT22;277;50.074;8.436;2023-04-08T16:46:23;12.10;99.90
582;DHT22;277;50.074;8.436;2023-04-08T16:48:51;12.00;99.90
582;DHT22;277;50.074;8.436;2023-04-08T16:51:19;12.00;99.90
582;DHT22;277;50.074;8.436;2023-04-08T16:53:47;12.00;99.90
582;DHT22;277;50.074;8.436;2023-04-08T16:56:16;12.00;99.90
582;DHT22;277;50.074;8.436;2023-04-08T16:58:44;11.90;99.90